Impacts TAF Board INFO
FOR SITUATIONAL AWARENESS. NOT TO BE USED FOR FLIGHT PLANNING PURPOSES.
IDs:

KDEN - Denver Intl, CO, US

Issued at 2108 UTC 19 Jun 2018
Updated at 2207 UTC 19 Jun 2018
Potential Impact None Slight Moderate High
Time2153Z 19/23Z 20/00Z 20/01Z 20/02Z 20/03Z 20/04Z 20/05Z 20/06Z 20/07Z 20/08Z 20/09Z 20/10Z 20/11Z>>
Type OBS PRVL PRVL PRVL PRVL PRVL PRVL PRVL PRVL PRVL PRVL PRVL PRVL PRVL
VIS 10 >6 >6 >6 >6 >6 >6 >6 >6 >6 >6 >6 >6 >6
CIG 100 60 60 60 60 50 50 50 50 -- -- -- -- --
Cover BKN BKN BKN BKN BKN BKN BKN BKN BKN SCT SCT SCT SCT SCT
FltCat VFR VFR VFR VFR VFR VFR VFR VFR VFR VFR VFR VFR VFR VFR
WX -- VCSH VCSH VCSH VCSH VCTS VCTS VCTS VCTS -- -- -- -- --
WDir 50 40 40 40 40 30 30 30 30 VRB VRB VRB VRB VRB
WSpd 13 12 12 12 12 12 12 12 12 5 5 5 5 5
WGst -- -- -- -- -- -- -- -- -- -- -- -- -- --

Raw TAF
KDEN 192108Z 1921/2024 04012KT P6SM VCSH BKN060 BKN110
  FM200300 03012KT P6SM VCTS BKN050CB BKN100
  FM200700 VRB05KT P6SM FEW020 SCT150
  FM201200 24007KT P6SM FEW150
  FM201600 33009KT P6SM SCT150
  FM202000 02009KT P6SM SCT050 BKN150


Raw METAR
KDEN 192153Z 05013KT 10SM FEW060 BKN100 BKN220 24/12 A2995 RMK AO2 LTG DSNT E-S SLP072 CB MOVD E T02390117
KDEN 192053Z 03013KT 10SM BKN055 BKN110 BKN220 25/12 A3000 RMK AO2 LTG DSNT NE-SE SLP086 FRQ LTGICCG DSNT NE-SE TS MOVD E CB DSNT NE-SE MOV E T02500122 58005
KDEN 192026Z 06005KT 10SM VCTS BKN055 BKN110 24/11 A3000 RMK AO2 LTG DSNT ALQDS FRQ LTGICCG VC SE TS VC SE MOV E T02390106
KDEN 192017Z 03007KT 10SM BKN055 BKN110 23/11 A3001 RMK AO2 LTG DSNT ALQDS FRQ LTGICCG DSNT N AND S CB DSNT N AND S MOV E T02330111
KDEN 191953Z 11011G18KT 10SM VCTS BKN055 BKN110 23/11 A3001 RMK AO2 LTG DSNT ALQDS SLP091 FRQ LTGICCG VC S AND DSNT N TS VC S MOV E T02330106
KDEN 191947Z 11011KT 10SM BKN055 BKN120 23/11 A3001 RMK AO2 LTG DSNT ALQDS FRQ LTGICCG DSNT S AND N CB DSNT S AND N MOV E

METAR Board
Radar Display
Forecast Discussion

FOR SITUATIONAL AWARENESS. NOT TO BE USED FOR FLIGHT PLANNING PURPOSES.